createdAt,value
2023-04-05T00:00:37.873Z,7.80
2023-04-05T00:03:13.258Z,7.10
2023-04-05T00:05:44.567Z,8.20
2023-04-05T00:08:23.854Z,7.60
2023-04-05T00:10:55.162Z,7.40
2023-04-05T00:13:23.930Z,7.20
2023-04-05T00:15:59.882Z,6.90
2023-04-05T00:18:36.170Z,6.40
2023-04-05T00:21:06.185Z,6.70
2023-04-05T00:23:39.921Z,8.90
2023-04-05T00:26:11.861Z,6.30
2023-04-05T00:28:43.115Z,7.30
2023-04-05T00:31:13.799Z,8.60
2023-04-05T00:33:43.121Z,6.20
2023-04-05T00:36:13.250Z,6.60
2023-04-05T00:38:44.664Z,6.80
2023-04-05T00:41:16.535Z,6.80
2023-04-05T00:46:18.415Z,5.60
2023-04-05T00:48:48.993Z,5.80
2023-04-05T00:51:17.519Z,6.50
2023-04-05T00:53:48.574Z,5.80
2023-04-05T00:56:17.324Z,4.70
2023-04-05T00:58:52.431Z,6.80
2023-04-05T01:01:22.962Z,5.70
2023-04-05T01:04:00.165Z,5.20
2023-04-05T01:06:42.277Z,5.80
2023-04-05T01:09:26.144Z,5.50
2023-04-05T01:11:56.217Z,5.20
2023-04-05T01:14:26.952Z,5.70
2023-04-05T01:16:58.857Z,6.60
2023-04-05T01:19:38.344Z,5.10
2023-04-05T01:22:46.533Z,6.40
2023-04-05T01:25:57.421Z,6.30
2023-04-05T01:29:05.035Z,5.40
2023-04-05T01:31:51.137Z,6.50
2023-04-05T01:34:45.857Z,5.60
2023-04-05T01:37:16.009Z,7.70
2023-04-05T01:39:51.902Z,6.60
2023-04-05T01:42:27.924Z,5.90
2023-04-05T01:45:00.125Z,6.10
2023-04-05T01:47:35.394Z,5.60
2023-04-05T01:50:03.901Z,6.00
2023-04-05T01:52:37.033Z,5.40
2023-04-05T01:55:10.207Z,7.10
2023-04-05T01:57:40.073Z,6.90
2023-04-05T02:00:13.401Z,5.40
2023-04-05T02:02:42.477Z,5.30
2023-04-05T02:05:10.784Z,4.60
2023-04-05T02:07:40.382Z,5.70
2023-04-05T02:10:09.138Z,4.80
2023-04-05T02:12:37.653Z,4.50
2023-04-05T02:15:07.890Z,7.00
2023-04-05T02:17:40.195Z,5.60
2023-04-05T02:20:09.184Z,5.40
2023-04-05T02:22:42.489Z,4.40
2023-04-05T02:25:10.725Z,4.40
2023-04-05T02:27:44.483Z,5.60
2023-04-05T02:30:14.273Z,5.00
2023-04-05T02:32:47.325Z,5.20
2023-04-05T02:35:18.499Z,5.20
2023-04-05T02:37:48.867Z,4.40
2023-04-05T02:40:17.169Z,5.00
2023-04-05T02:42:45.217Z,6.00
2023-04-05T02:45:14.477Z,5.40
2023-04-05T02:47:43.801Z,5.30
2023-04-05T02:50:12.708Z,5.10
2023-04-05T02:52:48.463Z,4.70
2023-04-05T02:55:16.707Z,4.80
2023-04-05T02:57:46.870Z,4.90
2023-04-05T03:00:32.648Z,4.50
2023-04-05T03:03:01.771Z,6.80
2023-04-05T03:05:30.410Z,6.50
2023-04-05T03:08:02.316Z,5.50
2023-04-05T03:10:36.362Z,5.70
2023-04-05T03:13:14.604Z,8.40
2023-04-05T03:15:44.403Z,5.80
2023-04-05T03:18:14.729Z,3.90
2023-04-05T03:20:50.441Z,4.20
2023-04-05T03:23:21.934Z,4.10
2023-04-05T03:25:57.204Z,5.30
2023-04-05T03:30:54.956Z,3.90
2023-04-05T03:33:23.471Z,7.60
2023-04-05T03:35:53.996Z,6.10
2023-04-05T03:38:24.163Z,4.70
2023-04-05T03:41:06.801Z,3.70
2023-04-05T03:43:37.025Z,3.20
2023-04-05T03:46:05.016Z,3.00
2023-04-05T03:48:34.739Z,4.00
2023-04-05T03:51:03.776Z,3.40
2023-04-05T03:53:33.048Z,3.30
2023-04-05T03:56:01.799Z,3.70
2023-04-05T03:58:41.782Z,3.00
2023-04-05T04:01:10.847Z,3.30
2023-04-05T04:03:40.417Z,3.00
2023-04-05T04:06:08.930Z,3.20
2023-04-05T04:08:39.522Z,3.60
2023-04-05T04:11:08.456Z,3.60
2023-04-05T04:13:40.514Z,4.80
2023-04-05T04:16:20.813Z,3.80
2023-04-05T04:19:21.771Z,3.30
2023-04-05T04:22:10.386Z,2.50
2023-04-05T04:25:19.042Z,2.60
2023-04-05T04:28:00.471Z,3.90
2023-04-05T04:30:47.541Z,2.70
2023-04-05T04:33:35.885Z,5.70
2023-04-05T04:36:36.344Z,3.50
2023-04-05T04:39:39.825Z,3.40
2023-04-05T04:42:33.954Z,3.20
2023-04-05T04:45:29.160Z,3.10
2023-04-05T04:48:26.749Z,2.40
2023-04-05T04:51:12.799Z,2.40
2023-04-05T04:53:41.228Z,2.30
2023-04-05T04:56:10.403Z,2.20
2023-04-05T04:58:38.411Z,2.00
2023-04-05T05:01:10.197Z,1.60
2023-04-05T05:03:40.168Z,2.70
2023-04-05T05:07:13.087Z,2.20
2023-04-05T05:09:41.192Z,3.50
2023-04-05T05:12:13.360Z,3.70
2023-04-05T05:14:42.220Z,2.20
2023-04-05T05:17:10.431Z,3.70
2023-04-05T05:19:39.234Z,2.80
2023-04-05T05:22:07.637Z,2.90
2023-04-05T05:24:40.334Z,2.10
2023-04-05T05:27:08.318Z,3.50
2023-04-05T05:29:39.682Z,4.90
2023-04-05T05:32:09.466Z,4.00
2023-04-05T05:34:39.892Z,3.50
2023-04-05T05:37:09.585Z,2.20
2023-04-05T05:39:38.069Z,2.20
2023-04-05T05:42:06.800Z,2.60
2023-04-05T05:44:36.005Z,3.40
2023-04-05T05:47:05.422Z,2.90
2023-04-05T05:49:33.462Z,3.60
2023-04-05T05:52:04.038Z,3.10
2023-04-05T05:54:33.102Z,5.10
2023-04-05T05:57:02.551Z,5.00
2023-04-05T05:59:31.126Z,2.60
2023-04-05T06:01:59.316Z,2.90
2023-04-05T06:04:29.087Z,2.70
2023-04-05T06:06:57.971Z,2.10
2023-04-05T06:09:30.986Z,2.70
2023-04-05T06:11:59.793Z,2.70
2023-04-05T06:14:29.927Z,1.90
2023-04-05T06:17:06.187Z,2.50
2023-04-05T06:19:35.273Z,2.00
2023-04-05T06:22:03.312Z,1.90
2023-04-05T06:24:33.042Z,2.50
2023-04-05T06:27:02.322Z,2.50
2023-04-05T06:29:32.823Z,2.60
2023-04-05T06:32:01.943Z,3.30
2023-04-05T06:34:30.748Z,2.10
2023-04-05T06:37:00.557Z,2.40
2023-04-05T06:39:28.938Z,3.10
2023-04-05T06:41:57.931Z,2.40
2023-04-05T06:44:27.620Z,2.30
2023-04-05T06:46:55.896Z,2.50
2023-04-05T06:49:23.900Z,3.10
2023-04-05T06:51:52.311Z,2.10
2023-04-05T06:54:25.052Z,3.60
2023-04-05T06:56:53.362Z,2.50
2023-04-05T06:59:21.520Z,3.20
2023-04-05T07:01:50.633Z,2.70
2023-04-05T07:04:19.039Z,2.00
2023-04-05T07:06:47.253Z,2.40
2023-04-05T07:09:18.534Z,2.00
2023-04-05T07:11:47.907Z,2.50
2023-04-05T07:14:16.310Z,2.60
2023-04-05T07:16:52.565Z,1.90
2023-04-05T07:19:21.213Z,2.30
2023-04-05T07:21:49.446Z,2.00
2023-04-05T07:24:17.651Z,3.10
2023-04-05T07:26:46.445Z,2.10
2023-04-05T07:29:18.991Z,3.40
2023-04-05T07:31:48.568Z,2.80
2023-04-05T07:34:17.185Z,2.10
2023-04-05T07:36:47.293Z,4.00
2023-04-05T07:39:17.545Z,3.10
2023-04-05T07:41:47.804Z,3.60
2023-04-05T07:44:17.614Z,4.80
2023-04-05T07:46:49.057Z,3.10
2023-04-05T07:49:18.272Z,4.70
2023-04-05T07:51:48.245Z,3.70
2023-04-05T07:54:16.533Z,2.90
2023-04-05T07:56:51.952Z,3.80
2023-04-05T07:59:20.975Z,4.40
2023-04-05T08:01:49.161Z,3.20
2023-04-05T08:04:17.156Z,4.10
2023-04-05T08:06:48.633Z,2.80
2023-04-05T08:09:17.362Z,3.60
2023-04-05T08:11:45.471Z,3.00
2023-04-05T08:14:14.366Z,3.00
2023-04-05T08:16:43.708Z,3.60
2023-04-05T08:19:15.575Z,3.10
2023-04-05T08:21:43.999Z,4.90
2023-04-05T08:24:12.115Z,2.70
2023-04-05T08:26:41.954Z,3.60
2023-04-05T08:29:12.292Z,3.50
2023-04-05T08:31:44.469Z,3.50
2023-04-05T08:34:12.995Z,3.20
2023-04-05T08:36:43.121Z,3.50
2023-04-05T08:39:11.978Z,3.30
2023-04-05T08:41:41.952Z,4.20
2023-04-05T08:44:10.877Z,3.90
2023-04-05T08:46:39.544Z,4.40
2023-04-05T08:49:08.684Z,4.30
2023-04-05T08:51:39.378Z,3.50
2023-04-05T08:54:09.918Z,5.10
2023-04-05T08:56:38.051Z,4.80
2023-04-05T08:59:13.475Z,4.60
2023-04-05T09:01:44.230Z,3.70
2023-04-05T09:04:21.496Z,4.30
2023-04-05T09:06:51.221Z,3.20
2023-04-05T09:09:21.848Z,3.20
2023-04-05T09:12:18.880Z,3.20
2023-04-05T09:14:55.615Z,3.70
2023-04-05T09:17:31.881Z,3.20
2023-04-05T09:20:17.022Z,5.70
2023-04-05T09:22:47.242Z,4.50
2023-04-05T09:25:41.560Z,3.20
2023-04-05T09:28:12.897Z,3.60
2023-04-05T09:33:20.262Z,2.90
2023-04-05T09:35:51.164Z,2.70
2023-04-05T09:38:26.972Z,3.60
2023-04-05T09:43:42.197Z,3.50
2023-04-05T09:46:38.534Z,3.60
2023-04-05T09:49:10.780Z,3.40
2023-04-05T09:51:47.938Z,3.90
2023-04-05T09:54:18.786Z,4.40
2023-04-05T09:57:26.832Z,3.80
2023-04-05T09:59:58.253Z,5.00
2023-04-05T10:02:49.443Z,4.20
2023-04-05T10:05:28.764Z,4.20
2023-04-05T10:08:08.930Z,4.00
2023-04-05T10:10:47.530Z,5.30
2023-04-05T10:13:22.847Z,4.70
2023-04-05T10:16:09.363Z,4.30
2023-04-05T10:18:58.338Z,5.10
2023-04-05T10:21:34.486Z,5.60
2023-04-05T10:24:19.349Z,5.20
2023-04-05T10:27:17.670Z,5.40
2023-04-05T10:30:09.427Z,5.80
2023-04-05T10:32:42.804Z,6.10
2023-04-05T10:35:17.267Z,5.70
2023-04-05T10:38:17.410Z,7.20
2023-04-05T10:40:48.527Z,7.10
2023-04-05T10:43:23.544Z,8.70
2023-04-05T10:45:53.688Z,9.50
2023-04-05T10:48:50.688Z,8.80
2023-04-05T10:51:21.212Z,7.40
2023-04-05T10:53:50.512Z,6.90
2023-04-05T10:56:20.415Z,6.20
2023-04-05T10:58:49.867Z,7.00
2023-04-05T11:01:19.291Z,6.90
2023-04-05T11:03:50.831Z,7.10
2023-04-05T11:06:33.677Z,8.20
2023-04-05T11:09:20.422Z,7.40
2023-04-05T11:11:51.728Z,7.10
2023-04-05T11:14:36.236Z,8.40
2023-04-05T11:17:28.400Z,7.20
2023-04-05T11:20:05.670Z,7.80
2023-04-05T11:22:35.276Z,7.30
2023-04-05T11:25:06.665Z,8.60
2023-04-05T11:27:42.138Z,6.40
2023-04-05T11:30:15.887Z,7.00
2023-04-05T11:32:45.875Z,7.70
2023-04-05T11:35:15.869Z,7.30
2023-04-05T11:38:02.894Z,7.90
2023-04-05T11:40:33.955Z,7.30
2023-04-05T11:43:04.178Z,6.30
2023-04-05T11:45:33.313Z,7.00
2023-04-05T11:48:09.704Z,9.40
2023-04-05T11:50:39.441Z,7.30
2023-04-05T11:53:10.380Z,7.40
2023-04-05T11:55:41.104Z,6.20
2023-04-05T11:58:13.859Z,6.40
2023-04-05T12:00:43.104Z,6.10
2023-04-05T12:03:25.157Z,6.20
2023-04-05T12:05:55.051Z,6.60
2023-04-05T12:08:24.325Z,6.60
2023-04-05T12:11:02.821Z,6.30
2023-04-05T12:13:37.856Z,7.30
2023-04-05T12:16:08.497Z,7.30
2023-04-05T12:18:38.257Z,7.30
2023-04-05T12:21:11.429Z,7.60
2023-04-05T12:23:39.878Z,7.30
2023-04-05T12:26:09.822Z,7.40
2023-04-05T12:28:56.576Z,7.00
2023-04-05T12:31:44.870Z,6.30
2023-04-05T12:34:14.443Z,6.10
2023-04-05T12:36:45.819Z,6.30
2023-04-05T12:39:16.868Z,5.80
2023-04-05T12:41:45.456Z,6.80
2023-04-05T12:44:16.526Z,6.50
2023-04-05T12:46:46.882Z,6.70
2023-04-05T12:49:18.765Z,6.80
2023-04-05T12:51:48.568Z,6.60
2023-04-05T12:54:23.787Z,7.20
2023-04-05T12:56:54.918Z,7.10
2023-04-05T12:59:24.234Z,7.60
2023-04-05T13:01:53.382Z,6.20
2023-04-05T13:04:30.392Z,8.20
2023-04-05T13:06:59.732Z,6.80
2023-04-05T13:09:29.965Z,7.40
2023-04-05T13:11:58.781Z,7.00
2023-04-05T13:14:28.493Z,6.90
2023-04-05T13:16:57.533Z,7.30
2023-04-05T13:19:26.414Z,7.20
2023-04-05T13:21:55.399Z,7.70
2023-04-05T13:24:24.372Z,7.70
2023-04-05T13:26:52.931Z,7.10
2023-04-05T13:29:21.867Z,6.80
2023-04-05T13:31:51.470Z,8.00
2023-04-05T13:34:20.741Z,6.60
2023-04-05T13:36:49.892Z,6.70
2023-04-05T13:39:21.927Z,7.10
2023-04-05T13:41:50.334Z,7.30
2023-04-05T13:44:19.483Z,6.80
2023-04-05T13:46:49.147Z,7.10
2023-04-05T13:49:17.953Z,6.90
2023-04-05T13:51:48.577Z,7.60
2023-04-05T13:54:17.503Z,8.00
2023-04-05T13:56:49.160Z,7.70
2023-04-05T13:59:19.718Z,8.20
2023-04-05T14:01:48.344Z,7.90
2023-04-05T14:04:16.483Z,7.60
2023-04-05T14:06:45.319Z,9.10
2023-04-05T14:09:13.883Z,8.90
2023-04-05T14:14:16.721Z,8.50
2023-04-05T14:16:47.465Z,8.30
2023-04-05T14:19:18.614Z,8.20
2023-04-05T14:21:47.481Z,8.40
2023-04-05T14:24:21.489Z,8.80
2023-04-05T14:26:50.507Z,8.40
2023-04-05T14:29:18.848Z,9.00
2023-04-05T14:31:47.266Z,9.00
2023-04-05T14:34:16.437Z,9.20
2023-04-05T14:36:44.986Z,8.80
2023-04-05T14:39:13.464Z,9.60
2023-04-05T14:41:41.676Z,8.80
2023-04-05T14:44:10.140Z,10.20
2023-04-05T14:46:38.701Z,9.00
2023-04-05T14:49:06.993Z,10.40
2023-04-05T14:51:36.894Z,9.70
2023-04-05T14:54:06.608Z,9.70
2023-04-05T14:56:38.398Z,9.40
2023-04-05T14:59:06.591Z,10.40
2023-04-05T15:01:35.090Z,10.20
2023-04-05T15:04:03.906Z,16.60
2023-04-05T15:06:32.507Z,11.20
2023-04-05T15:09:01.165Z,9.90
2023-04-05T15:11:30.315Z,9.60
2023-04-05T15:13:58.930Z,10.50
2023-04-05T15:16:27.601Z,11.40
2023-04-05T15:18:59.654Z,11.50
2023-04-05T15:21:27.987Z,12.70
2023-04-05T15:23:56.180Z,11.80
2023-04-05T15:26:24.591Z,11.10
2023-04-05T15:28:52.689Z,11.70
2023-04-05T15:31:20.828Z,12.80
2023-04-05T15:33:49.193Z,11.80
2023-04-05T15:36:17.550Z,11.10
2023-04-05T15:38:46.225Z,12.40
2023-04-05T15:41:14.398Z,13.10
2023-04-05T15:43:47.048Z,13.00
2023-04-05T15:46:15.786Z,12.50
2023-04-05T15:48:44.201Z,12.80
2023-04-05T15:51:12.598Z,12.60
2023-04-05T15:53:40.688Z,13.70
2023-04-05T15:56:09.354Z,12.30
2023-04-05T15:58:37.642Z,13.50
2023-04-05T16:01:06.445Z,13.80
2023-04-05T16:03:36.166Z,13.80
2023-04-05T16:06:04.294Z,13.00
2023-04-05T16:08:33.467Z,13.40
2023-04-05T16:11:01.629Z,12.80
2023-04-05T16:13:34.299Z,14.40
2023-04-05T16:16:02.752Z,14.10
2023-04-05T16:18:32.660Z,15.30
2023-04-05T16:21:08.731Z,14.40
2023-04-05T16:23:38.367Z,13.70
2023-04-05T16:26:06.528Z,14.60
2023-04-05T16:28:35.164Z,13.30
2023-04-05T16:31:03.683Z,14.60
2023-04-05T16:33:33.141Z,14.00
2023-04-05T16:36:02.088Z,13.90
2023-04-05T16:38:30.253Z,14.00
2023-04-05T16:40:59.012Z,14.40
2023-04-05T16:43:28.010Z,13.30
2023-04-05T16:45:56.295Z,14.70
2023-04-05T16:48:32.703Z,15.20
2023-04-05T16:51:00.965Z,15.20
2023-04-05T16:53:30.285Z,13.80
2023-04-05T16:55:58.459Z,13.70
2023-04-05T16:58:26.735Z,13.40
2023-04-05T17:00:58.890Z,14.60
2023-04-05T17:03:27.910Z,14.50
2023-04-05T17:05:56.668Z,14.80
2023-04-05T17:08:25.685Z,14.80
2023-04-05T17:10:54.015Z,13.50
2023-04-05T17:13:22.083Z,15.20
2023-04-05T17:15:50.795Z,15.80
2023-04-05T17:18:18.879Z,14.40
2023-04-05T17:20:47.231Z,15.10
2023-04-05T17:25:25.154Z,16.70
2023-04-05T17:27:54.294Z,16.30
2023-04-05T17:30:23.104Z,16.30
2023-04-05T17:32:51.441Z,16.90
2023-04-05T17:35:18.940Z,15.30
2023-04-05T17:37:47.000Z,14.80
2023-04-05T17:40:14.598Z,16.10
2023-04-05T17:42:42.131Z,15.70
2023-04-05T17:45:09.486Z,16.30
2023-04-05T17:47:36.789Z,15.40
2023-04-05T17:50:04.021Z,15.40
2023-04-05T17:52:31.458Z,16.20
2023-04-05T17:54:58.071Z,15.70
2023-04-05T17:57:25.490Z,15.70
2023-04-05T17:59:52.432Z,16.00
2023-04-05T18:02:19.738Z,15.10
2023-04-05T18:04:46.873Z,16.00
2023-04-05T18:07:13.769Z,17.50
2023-04-05T18:09:42.483Z,15.40
2023-04-05T18:12:10.071Z,16.00
2023-04-05T18:14:37.267Z,17.60
2023-04-05T18:17:06.647Z,17.70
2023-04-05T18:19:33.765Z,16.00
2023-04-05T18:22:00.470Z,16.10
2023-04-05T18:24:27.296Z,16.60
2023-04-05T18:26:54.695Z,15.50
2023-04-05T18:29:28.761Z,19.80
2023-04-05T18:31:56.181Z,17.60
2023-04-05T18:34:23.451Z,19.50
2023-04-05T18:36:53.592Z,17.50
2023-04-05T18:39:21.145Z,17.60
2023-04-05T18:41:47.875Z,16.70
2023-04-05T18:44:15.789Z,18.00
2023-04-05T18:46:43.781Z,19.90
2023-04-05T18:49:11.010Z,19.50
2023-04-05T18:51:37.990Z,17.40
2023-04-05T18:54:08.963Z,21.30
2023-04-05T18:56:36.193Z,18.90
2023-04-05T18:59:02.909Z,19.00
2023-04-05T19:01:33.148Z,21.00
2023-04-05T19:04:00.046Z,23.60
2023-04-05T19:06:27.580Z,19.00
2023-04-05T19:08:55.714Z,23.70
2023-04-05T19:11:22.667Z,21.50
2023-04-05T19:13:50.154Z,22.40
2023-04-05T19:16:18.099Z,23.20
2023-04-05T19:18:45.233Z,21.10
2023-04-05T19:21:17.080Z,18.40
2023-04-05T19:23:44.601Z,23.00
2023-04-05T19:26:11.626Z,21.50
2023-04-05T19:28:39.087Z,18.80
2023-04-05T19:31:06.608Z,23.20
2023-04-05T19:33:34.451Z,21.80
2023-04-05T19:36:01.561Z,22.00
2023-04-05T19:38:29.805Z,20.90
2023-04-05T19:40:57.292Z,18.70
2023-04-05T19:43:25.684Z,19.90
2023-04-05T19:45:55.871Z,20.00
2023-04-05T19:48:43.778Z,20.70
2023-04-05T19:51:13.457Z,20.40
2023-04-05T19:53:49.679Z,20.00
2023-04-05T19:56:36.683Z,19.90
2023-04-05T19:59:08.355Z,19.60
2023-04-05T20:01:39.537Z,19.20
2023-04-05T20:04:11.830Z,20.50
2023-04-05T20:06:41.897Z,22.70
2023-04-05T20:09:10.950Z,18.60
2023-04-05T20:11:38.010Z,19.50
2023-04-05T20:14:05.898Z,19.90
2023-04-05T20:16:34.973Z,18.70
2023-04-05T20:19:03.946Z,17.70
2023-04-05T20:21:31.749Z,18.10
2023-04-05T20:24:01.933Z,18.90
2023-04-05T20:26:30.404Z,20.80
2023-04-05T20:29:14.114Z,20.30
2023-04-05T20:31:41.432Z,18.20
2023-04-05T20:34:08.888Z,19.20
2023-04-05T20:36:38.102Z,17.60
2023-04-05T20:39:08.095Z,17.50
2023-04-05T20:41:35.822Z,17.40
2023-04-05T20:44:05.609Z,18.70
2023-04-05T20:46:33.535Z,17.80
2023-04-05T20:49:00.711Z,18.10
2023-04-05T20:51:33.507Z,18.70
2023-04-05T20:54:01.591Z,20.70
2023-04-05T20:56:28.734Z,19.90
2023-04-05T20:58:56.131Z,20.10
2023-04-05T21:01:23.081Z,21.60
2023-04-05T21:03:53.043Z,18.90
2023-04-05T21:06:20.022Z,19.80
2023-04-05T21:08:46.649Z,17.70
2023-04-05T21:11:15.576Z,18.50
2023-04-05T21:13:42.885Z,18.50
2023-04-05T21:16:09.803Z,20.00
2023-04-05T21:18:41.470Z,18.30
2023-04-05T21:21:08.235Z,18.60
2023-04-05T21:23:35.124Z,17.90
2023-04-05T21:26:03.642Z,20.60
2023-04-05T21:28:30.916Z,21.20
2023-04-05T21:30:58.329Z,19.30
2023-04-05T21:33:25.313Z,18.70
2023-04-05T21:35:53.133Z,18.70
2023-04-05T21:38:20.560Z,18.20
2023-04-05T21:40:49.671Z,17.40
2023-04-05T21:43:16.396Z,17.00
2023-04-05T21:45:43.174Z,17.80
2023-04-05T21:48:10.101Z,18.00
2023-04-05T21:50:37.198Z,21.70
2023-04-05T21:53:04.826Z,18.10
2023-04-05T21:55:34.772Z,22.10
2023-04-05T21:58:02.071Z,19.60
2023-04-05T22:00:29.742Z,22.30
2023-04-05T22:02:58.298Z,19.50
2023-04-05T22:05:37.351Z,17.50
2023-04-05T22:08:10.583Z,20.30
2023-04-05T22:10:38.135Z,15.90
2023-04-05T22:13:05.436Z,17.30
2023-04-05T22:15:34.874Z,18.90
2023-04-05T22:18:02.268Z,15.50
2023-04-05T22:20:29.057Z,16.60
2023-04-05T22:22:56.066Z,17.90
2023-04-05T22:25:29.662Z,16.40
2023-04-05T22:28:03.211Z,18.10
2023-04-05T22:30:43.730Z,17.70
2023-04-05T22:33:12.866Z,16.90
2023-04-05T22:35:41.504Z,16.30
2023-04-05T22:38:13.241Z,17.80
2023-04-05T22:40:40.942Z,18.00
2023-04-05T22:43:11.444Z,16.80
2023-04-05T22:45:38.905Z,18.30
2023-04-05T22:48:05.906Z,16.00
2023-04-05T22:50:34.665Z,17.90
2023-04-05T22:53:01.366Z,17.90
2023-04-05T22:55:31.685Z,17.30
2023-04-05T22:57:58.843Z,20.50
2023-04-05T23:00:25.679Z,16.00
2023-04-05T23:02:52.958Z,16.40
2023-04-05T23:05:20.857Z,16.90
2023-04-05T23:07:47.705Z,16.80
2023-04-05T23:10:15.088Z,17.60
2023-04-05T23:12:46.900Z,14.60
2023-04-05T23:15:14.783Z,17.90
2023-04-05T23:17:41.891Z,21.10
2023-04-05T23:20:10.317Z,17.90
2023-04-05T23:22:37.266Z,15.90
2023-04-05T23:25:05.449Z,16.60
2023-04-05T23:27:32.627Z,18.60
2023-04-05T23:29:59.286Z,16.60
2023-04-05T23:32:26.250Z,15.50
2023-04-05T23:34:52.903Z,17.00
2023-04-05T23:37:19.842Z,16.00
2023-04-05T23:39:47.126Z,17.70
2023-04-05T23:42:16.855Z,20.30
2023-04-05T23:44:44.389Z,21.10
2023-04-05T23:47:11.062Z,20.30
2023-04-05T23:49:38.235Z,20.70
2023-04-05T23:52:05.315Z,19.40
2023-04-05T23:54:38.374Z,17.70
2023-04-05T23:57:05.183Z,17.70
2023-04-05T23:59:32.066Z,18.40
